sensor_id;sensor_type;location;lat;lon;timestamp;P1;durP1;ratioP1;P2;durP2;ratioP2
57337;SDS011;43173;50.980;18.204;2024-02-15T00:02:07;34.00;;;15.10;;
57337;SDS011;43173;50.980;18.204;2024-02-15T00:04:33;31.20;;;14.90;;
57337;SDS011;43173;50.980;18.204;2024-02-15T00:06:59;31.30;;;14.90;;
57337;SDS011;43173;50.980;18.204;2024-02-15T00:09:25;31.10;;;15.00;;
57337;SDS011;43173;50.980;18.204;2024-02-15T00:11:51;29.90;;;14.20;;
57337;SDS011;43173;50.980;18.204;2024-02-15T00:14:19;33.70;;;14.00;;
57337;SDS011;43173;50.980;18.204;2024-02-15T00:16:44;29.90;;;14.00;;
57337;SDS011;43173;50.980;18.204;2024-02-15T00:19:11;27.40;;;14.60;;
57337;SDS011;43173;50.980;18.204;2024-02-15T00:21:37;31.90;;;14.20;;
57337;SDS011;43173;50.980;18.204;2024-02-15T00:24:02;26.80;;;13.80;;
57337;SDS011;43173;50.980;18.204;2024-02-15T00:26:28;30.40;;;14.80;;
57337;SDS011;43173;50.980;18.204;2024-02-15T00:28:53;30.80;;;14.50;;
57337;SDS011;43173;50.980;18.204;2024-02-15T00:31:19;33.30;;;15.50;;
57337;SDS011;43173;50.980;18.204;2024-02-15T00:33:44;30.80;;;14.90;;
57337;SDS011;43173;50.980;18.204;2024-02-15T00:36:10;26.50;;;13.80;;
57337;SDS011;43173;50.980;18.204;2024-02-15T00:38:35;31.70;;;14.30;;
57337;SDS011;43173;50.980;18.204;2024-02-15T00:41:02;29.60;;;14.90;;
57337;SDS011;43173;50.980;18.204;2024-02-15T00:43:27;31.60;;;14.20;;
57337;SDS011;43173;50.980;18.204;2024-02-15T00:45:53;27.30;;;14.30;;
57337;SDS011;43173;50.980;18.204;2024-02-15T00:48:19;27.30;;;13.80;;
57337;SDS011;43173;50.980;18.204;2024-02-15T00:50:44;31.50;;;14.90;;
57337;SDS011;43173;50.980;18.204;2024-02-15T00:53:10;32.30;;;15.60;;
57337;SDS011;43173;50.980;18.204;2024-02-15T00:55:35;29.80;;;14.90;;
57337;SDS011;43173;50.980;18.204;2024-02-15T00:58:01;26.10;;;13.30;;
57337;SDS011;43173;50.980;18.204;2024-02-15T01:00:27;26.70;;;13.60;;
57337;SDS011;43173;50.980;18.204;2024-02-15T01:02:54;28.20;;;14.20;;
57337;SDS011;43173;50.980;18.204;2024-02-15T01:05:20;24.50;;;13.10;;
57337;SDS011;43173;50.980;18.204;2024-02-15T01:07:47;29.30;;;14.00;;
57337;SDS011;43173;50.980;18.204;2024-02-15T01:10:14;26.10;;;13.90;;
57337;SDS011;43173;50.980;18.204;2024-02-15T01:12:40;28.70;;;14.70;;
57337;SDS011;43173;50.980;18.204;2024-02-15T01:15:06;30.70;;;14.60;;
57337;SDS011;43173;50.980;18.204;2024-02-15T01:17:32;28.80;;;14.50;;
57337;SDS011;43173;50.980;18.204;2024-02-15T01:19:58;27.50;;;12.90;;
57337;SDS011;43173;50.980;18.204;2024-02-15T01:22:24;28.10;;;14.00;;
57337;SDS011;43173;50.980;18.204;2024-02-15T01:24:52;27.30;;;14.00;;
57337;SDS011;43173;50.980;18.204;2024-02-15T01:27:18;24.40;;;13.60;;
57337;SDS011;43173;50.980;18.204;2024-02-15T01:29:44;28.90;;;13.60;;
57337;SDS011;43173;50.980;18.204;2024-02-15T01:32:10;30.80;;;14.00;;
57337;SDS011;43173;50.980;18.204;2024-02-15T01:34:36;27.80;;;13.50;;
57337;SDS011;43173;50.980;18.204;2024-02-15T01:37:02;27.90;;;13.10;;
57337;SDS011;43173;50.980;18.204;2024-02-15T01:39:27;27.50;;;13.50;;
57337;SDS011;43173;50.980;18.204;2024-02-15T01:41:53;27.90;;;14.00;;
57337;SDS011;43173;50.980;18.204;2024-02-15T01:44:21;23.60;;;13.00;;
57337;SDS011;43173;50.980;18.204;2024-02-15T01:46:50;25.70;;;12.70;;
57337;SDS011;43173;50.980;18.204;2024-02-15T01:49:19;24.10;;;12.60;;
57337;SDS011;43173;50.980;18.204;2024-02-15T01:51:47;29.10;;;13.60;;
57337;SDS011;43173;50.980;18.204;2024-02-15T01:54:14;29.00;;;13.40;;
57337;SDS011;43173;50.980;18.204;2024-02-15T01:56:43;29.70;;;12.70;;
57337;SDS011;43173;50.980;18.204;2024-02-15T01:59:09;26.30;;;13.30;;
57337;SDS011;43173;50.980;18.204;2024-02-15T02:01:35;27.50;;;13.80;;
57337;SDS011;43173;50.980;18.204;2024-02-15T02:04:01;30.20;;;13.50;;
57337;SDS011;43173;50.980;18.204;2024-02-15T02:06:28;24.30;;;13.30;;
57337;SDS011;43173;50.980;18.204;2024-02-15T02:08:53;27.90;;;12.40;;
57337;SDS011;43173;50.980;18.204;2024-02-15T02:11:22;27.80;;;13.70;;
57337;SDS011;43173;50.980;18.204;2024-02-15T02:13:48;28.90;;;13.80;;
57337;SDS011;43173;50.980;18.204;2024-02-15T02:19:01;28.10;;;13.80;;
57337;SDS011;43173;50.980;18.204;2024-02-15T02:21:27;27.80;;;13.90;;
57337;SDS011;43173;50.980;18.204;2024-02-15T02:23:55;23.60;;;13.40;;
57337;SDS011;43173;50.980;18.204;2024-02-15T02:26:22;29.60;;;14.30;;
57337;SDS011;43173;50.980;18.204;2024-02-15T02:28:49;31.00;;;14.60;;
57337;SDS011;43173;50.980;18.204;2024-02-15T02:31:15;31.30;;;15.00;;
57337;SDS011;43173;50.980;18.204;2024-02-15T02:33:41;28.70;;;14.20;;
57337;SDS011;43173;50.980;18.204;2024-02-15T02:36:07;28.20;;;13.60;;
57337;SDS011;43173;50.980;18.204;2024-02-15T02:38:35;24.10;;;12.90;;
57337;SDS011;43173;50.980;18.204;2024-02-15T02:41:06;24.20;;;12.60;;
57337;SDS011;43173;50.980;18.204;2024-02-15T02:43:32;28.10;;;13.00;;
57337;SDS011;43173;50.980;18.204;2024-02-15T02:45:57;24.70;;;13.30;;
57337;SDS011;43173;50.980;18.204;2024-02-15T02:48:23;27.70;;;13.10;;
57337;SDS011;43173;50.980;18.204;2024-02-15T02:50:49;25.10;;;12.50;;
57337;SDS011;43173;50.980;18.204;2024-02-15T02:53:15;22.00;;;11.70;;
57337;SDS011;43173;50.980;18.204;2024-02-15T02:55:40;24.70;;;12.40;;
57337;SDS011;43173;50.980;18.204;2024-02-15T02:58:06;21.10;;;11.50;;
57337;SDS011;43173;50.980;18.204;2024-02-15T03:00:33;27.90;;;13.00;;
57337;SDS011;43173;50.980;18.204;2024-02-15T03:02:58;24.70;;;12.50;;
57337;SDS011;43173;50.980;18.204;2024-02-15T03:05:25;25.50;;;13.20;;
57337;SDS011;43173;50.980;18.204;2024-02-15T03:07:51;23.20;;;12.80;;
57337;SDS011;43173;50.980;18.204;2024-02-15T03:10:17;22.20;;;12.30;;
57337;SDS011;43173;50.980;18.204;2024-02-15T03:12:43;27.20;;;13.30;;
57337;SDS011;43173;50.980;18.204;2024-02-15T03:15:12;29.30;;;13.40;;
57337;SDS011;43173;50.980;18.204;2024-02-15T03:17:41;26.80;;;12.80;;
57337;SDS011;43173;50.980;18.204;2024-02-15T03:20:08;23.10;;;11.40;;
57337;SDS011;43173;50.980;18.204;2024-02-15T03:25:27;27.60;;;12.20;;
57337;SDS011;43173;50.980;18.204;2024-02-15T03:27:57;25.40;;;12.90;;
57337;SDS011;43173;50.980;18.204;2024-02-15T03:30:25;23.20;;;12.70;;
57337;SDS011;43173;50.980;18.204;2024-02-15T03:32:52;24.30;;;13.00;;
57337;SDS011;43173;50.980;18.204;2024-02-15T03:35:19;26.30;;;13.10;;
57337;SDS011;43173;50.980;18.204;2024-02-15T03:37:45;28.90;;;13.30;;
57337;SDS011;43173;50.980;18.204;2024-02-15T03:40:11;27.20;;;13.00;;
57337;SDS011;43173;50.980;18.204;2024-02-15T03:42:37;25.50;;;13.10;;
57337;SDS011;43173;50.980;18.204;2024-02-15T03:45:06;24.90;;;12.70;;
57337;SDS011;43173;50.980;18.204;2024-02-15T03:47:32;24.10;;;12.60;;
57337;SDS011;43173;50.980;18.204;2024-02-15T03:50:09;29.10;;;13.60;;
57337;SDS011;43173;50.980;18.204;2024-02-15T03:52:36;28.10;;;13.20;;
57337;SDS011;43173;50.980;18.204;2024-02-15T03:55:02;26.00;;;12.90;;
57337;SDS011;43173;50.980;18.204;2024-02-15T03:57:28;30.00;;;12.90;;
57337;SDS011;43173;50.980;18.204;2024-02-15T03:59:54;28.20;;;13.40;;
57337;SDS011;43173;50.980;18.204;2024-02-15T04:02:22;26.20;;;13.50;;
57337;SDS011;43173;50.980;18.204;2024-02-15T04:04:52;29.70;;;14.20;;
57337;SDS011;43173;50.980;18.204;2024-02-15T04:07:20;30.00;;;14.10;;
57337;SDS011;43173;50.980;18.204;2024-02-15T04:09:46;25.20;;;13.30;;
57337;SDS011;43173;50.980;18.204;2024-02-15T04:12:13;26.80;;;13.90;;
57337;SDS011;43173;50.980;18.204;2024-02-15T04:14:45;22.00;;;12.40;;
57337;SDS011;43173;50.980;18.204;2024-02-15T04:17:12;25.20;;;13.30;;
57337;SDS011;43173;50.980;18.204;2024-02-15T04:19:45;28.50;;;13.50;;
57337;SDS011;43173;50.980;18.204;2024-02-15T04:22:19;24.30;;;13.20;;
57337;SDS011;43173;50.980;18.204;2024-02-15T04:24:45;27.90;;;13.80;;
57337;SDS011;43173;50.980;18.204;2024-02-15T04:27:11;25.30;;;12.00;;
57337;SDS011;43173;50.980;18.204;2024-02-15T04:29:40;22.80;;;13.40;;
57337;SDS011;43173;50.980;18.204;2024-02-15T04:32:06;28.20;;;13.40;;
57337;SDS011;43173;50.980;18.204;2024-02-15T04:34:36;29.30;;;14.90;;
57337;SDS011;43173;50.980;18.204;2024-02-15T04:37:02;47.90;;;19.60;;
57337;SDS011;43173;50.980;18.204;2024-02-15T04:39:33;46.10;;;20.30;;
57337;SDS011;43173;50.980;18.204;2024-02-15T04:41:59;44.30;;;19.50;;
57337;SDS011;43173;50.980;18.204;2024-02-15T04:44:25;40.60;;;18.50;;
57337;SDS011;43173;50.980;18.204;2024-02-15T04:46:53;33.50;;;15.10;;
57337;SDS011;43173;50.980;18.204;2024-02-15T04:49:19;27.10;;;14.60;;
57337;SDS011;43173;50.980;18.204;2024-02-15T04:51:45;27.40;;;13.60;;
57337;SDS011;43173;50.980;18.204;2024-02-15T04:54:12;25.20;;;13.30;;
57337;SDS011;43173;50.980;18.204;2024-02-15T04:56:38;26.90;;;14.40;;
57337;SDS011;43173;50.980;18.204;2024-02-15T04:59:05;30.70;;;14.60;;
57337;SDS011;43173;50.980;18.204;2024-02-15T05:01:34;39.50;;;18.10;;
57337;SDS011;43173;50.980;18.204;2024-02-15T05:04:00;46.50;;;21.10;;
57337;SDS011;43173;50.980;18.204;2024-02-15T05:06:31;66.40;;;25.70;;
57337;SDS011;43173;50.980;18.204;2024-02-15T05:08:57;101.40;;;36.60;;
57337;SDS011;43173;50.980;18.204;2024-02-15T05:11:25;122.70;;;40.00;;
57337;SDS011;43173;50.980;18.204;2024-02-15T05:13:51;120.20;;;41.40;;
57337;SDS011;43173;50.980;18.204;2024-02-15T05:16:18;91.70;;;33.80;;
57337;SDS011;43173;50.980;18.204;2024-02-15T05:18:44;62.50;;;24.50;;
57337;SDS011;43173;50.980;18.204;2024-02-15T05:21:11;48.10;;;21.50;;
57337;SDS011;43173;50.980;18.204;2024-02-15T05:23:37;125.30;;;49.80;;
57337;SDS011;43173;50.980;18.204;2024-02-15T05:26:07;96.20;;;41.30;;
57337;SDS011;43173;50.980;18.204;2024-02-15T05:28:34;57.10;;;22.40;;
57337;SDS011;43173;50.980;18.204;2024-02-15T05:33:50;52.10;;;26.10;;
57337;SDS011;43173;50.980;18.204;2024-02-15T05:36:17;38.30;;;20.40;;
57337;SDS011;43173;50.980;18.204;2024-02-15T05:38:49;43.90;;;20.50;;
57337;SDS011;43173;50.980;18.204;2024-02-15T05:41:16;43.80;;;19.60;;
57337;SDS011;43173;50.980;18.204;2024-02-15T05:43:42;37.80;;;18.60;;
57337;SDS011;43173;50.980;18.204;2024-02-15T05:46:08;31.30;;;16.50;;
57337;SDS011;43173;50.980;18.204;2024-02-15T05:48:35;32.00;;;15.30;;
57337;SDS011;43173;50.980;18.204;2024-02-15T05:51:02;29.90;;;16.10;;
57337;SDS011;43173;50.980;18.204;2024-02-15T05:53:28;35.10;;;16.60;;
57337;SDS011;43173;50.980;18.204;2024-02-15T05:55:54;33.50;;;17.30;;
57337;SDS011;43173;50.980;18.204;2024-02-15T05:58:23;37.00;;;18.90;;
57337;SDS011;43173;50.980;18.204;2024-02-15T06:00:50;34.30;;;16.60;;
57337;SDS011;43173;50.980;18.204;2024-02-15T06:03:16;31.50;;;15.90;;
57337;SDS011;43173;50.980;18.204;2024-02-15T06:05:42;32.40;;;14.20;;
57337;SDS011;43173;50.980;18.204;2024-02-15T06:08:09;32.60;;;16.60;;
57337;SDS011;43173;50.980;18.204;2024-02-15T06:10:37;33.60;;;17.80;;
57337;SDS011;43173;50.980;18.204;2024-02-15T06:13:04;33.90;;;17.30;;
57337;SDS011;43173;50.980;18.204;2024-02-15T06:15:29;30.10;;;15.90;;
57337;SDS011;43173;50.980;18.204;2024-02-15T06:17:55;35.10;;;16.50;;
57337;SDS011;43173;50.980;18.204;2024-02-15T06:20:22;50.00;;;19.30;;
57337;SDS011;43173;50.980;18.204;2024-02-15T06:22:48;63.30;;;21.40;;
57337;SDS011;43173;50.980;18.204;2024-02-15T06:25:14;100.80;;;30.60;;
57337;SDS011;43173;50.980;18.204;2024-02-15T06:27:46;99.10;;;30.60;;
57337;SDS011;43173;50.980;18.204;2024-02-15T06:30:13;94.20;;;32.00;;
57337;SDS011;43173;50.980;18.204;2024-02-15T06:32:56;64.30;;;25.00;;
57337;SDS011;43173;50.980;18.204;2024-02-15T06:35:38;55.90;;;21.30;;
57337;SDS011;43173;50.980;18.204;2024-02-15T06:38:20;35.10;;;18.20;;
57337;SDS011;43173;50.980;18.204;2024-02-15T06:43:27;74.50;;;25.60;;
57337;SDS011;43173;50.980;18.204;2024-02-15T06:45:53;141.20;;;35.20;;
57337;SDS011;43173;50.980;18.204;2024-02-15T06:48:18;196.50;;;46.80;;
57337;SDS011;43173;50.980;18.204;2024-02-15T06:50:47;201.40;;;45.30;;
57337;SDS011;43173;50.980;18.204;2024-02-15T06:53:14;271.80;;;58.20;;
57337;SDS011;43173;50.980;18.204;2024-02-15T06:55:40;239.80;;;52.80;;
57337;SDS011;43173;50.980;18.204;2024-02-15T06:58:05;192.50;;;47.30;;
57337;SDS011;43173;50.980;18.204;2024-02-15T07:00:31;168.90;;;43.50;;
57337;SDS011;43173;50.980;18.204;2024-02-15T07:02:57;91.50;;;27.70;;
57337;SDS011;43173;50.980;18.204;2024-02-15T07:05:23;83.30;;;27.30;;
57337;SDS011;43173;50.980;18.204;2024-02-15T07:07:48;42.60;;;18.50;;
57337;SDS011;43173;50.980;18.204;2024-02-15T07:10:15;33.40;;;15.60;;
57337;SDS011;43173;50.980;18.204;2024-02-15T07:12:42;28.10;;;15.00;;
57337;SDS011;43173;50.980;18.204;2024-02-15T07:15:10;26.80;;;14.20;;
57337;SDS011;43173;50.980;18.204;2024-02-15T07:17:37;28.50;;;13.80;;
57337;SDS011;43173;50.980;18.204;2024-02-15T07:20:03;26.30;;;14.50;;
57337;SDS011;43173;50.980;18.204;2024-02-15T07:22:32;29.40;;;15.10;;
57337;SDS011;43173;50.980;18.204;2024-02-15T07:24:58;30.30;;;15.00;;
57337;SDS011;43173;50.980;18.204;2024-02-15T07:27:23;36.20;;;15.00;;
57337;SDS011;43173;50.980;18.204;2024-02-15T07:29:51;30.40;;;15.40;;
57337;SDS011;43173;50.980;18.204;2024-02-15T07:32:17;40.40;;;17.10;;
57337;SDS011;43173;50.980;18.204;2024-02-15T07:46:41;33.30;;;16.20;;
57337;SDS011;43173;50.980;18.204;2024-02-15T07:49:07;26.40;;;15.10;;
57337;SDS011;43173;50.980;18.204;2024-02-15T07:51:33;30.00;;;16.00;;
57337;SDS011;43173;50.980;18.204;2024-02-15T07:53:59;30.40;;;14.80;;
57337;SDS011;43173;50.980;18.204;2024-02-15T07:56:26;38.20;;;16.30;;
57337;SDS011;43173;50.980;18.204;2024-02-15T07:58:52;36.70;;;16.50;;
57337;SDS011;43173;50.980;18.204;2024-02-15T08:01:18;31.70;;;15.60;;
57337;SDS011;43173;50.980;18.204;2024-02-15T08:03:46;23.20;;;12.70;;
57337;SDS011;43173;50.980;18.204;2024-02-15T08:06:12;24.80;;;12.60;;
57337;SDS011;43173;50.980;18.204;2024-02-15T08:08:43;22.30;;;13.00;;
57337;SDS011;43173;50.980;18.204;2024-02-15T08:11:16;22.00;;;13.00;;
57337;SDS011;43173;50.980;18.204;2024-02-15T08:13:44;21.10;;;12.50;;
57337;SDS011;43173;50.980;18.204;2024-02-15T08:16:13;24.70;;;12.70;;
57337;SDS011;43173;50.980;18.204;2024-02-15T08:18:44;23.50;;;13.60;;
57337;SDS011;43173;50.980;18.204;2024-02-15T08:21:11;23.30;;;12.50;;
57337;SDS011;43173;50.980;18.204;2024-02-15T08:23:37;23.70;;;13.80;;
57337;SDS011;43173;50.980;18.204;2024-02-15T08:26:03;21.80;;;13.30;;
57337;SDS011;43173;50.980;18.204;2024-02-15T08:28:29;21.00;;;12.80;;
57337;SDS011;43173;50.980;18.204;2024-02-15T08:30:55;23.30;;;13.30;;
57337;SDS011;43173;50.980;18.204;2024-02-15T08:33:22;18.80;;;12.60;;
57337;SDS011;43173;50.980;18.204;2024-02-15T08:35:49;21.70;;;12.50;;
57337;SDS011;43173;50.980;18.204;2024-02-15T08:38:14;22.00;;;11.40;;
57337;SDS011;43173;50.980;18.204;2024-02-15T08:40:40;22.20;;;13.70;;
57337;SDS011;43173;50.980;18.204;2024-02-15T08:43:05;22.50;;;12.80;;
57337;SDS011;43173;50.980;18.204;2024-02-15T08:45:31;24.10;;;13.10;;
57337;SDS011;43173;50.980;18.204;2024-02-15T08:47:57;21.60;;;13.50;;
57337;SDS011;43173;50.980;18.204;2024-02-15T08:50:23;24.10;;;12.80;;
57337;SDS011;43173;50.980;18.204;2024-02-15T08:52:49;20.50;;;12.20;;
57337;SDS011;43173;50.980;18.204;2024-02-15T08:55:15;20.30;;;11.60;;
57337;SDS011;43173;50.980;18.204;2024-02-15T08:57:40;19.10;;;11.90;;
57337;SDS011;43173;50.980;18.204;2024-02-15T09:00:07;17.50;;;11.00;;
57337;SDS011;43173;50.980;18.204;2024-02-15T09:02:47;20.50;;;11.50;;
57337;SDS011;43173;50.980;18.204;2024-02-15T09:05:14;21.10;;;11.50;;
57337;SDS011;43173;50.980;18.204;2024-02-15T09:07:45;19.00;;;11.70;;
57337;SDS011;43173;50.980;18.204;2024-02-15T09:10:16;17.70;;;11.90;;
57337;SDS011;43173;50.980;18.204;2024-02-15T09:15:14;22.30;;;12.00;;
57337;SDS011;43173;50.980;18.204;2024-02-15T09:17:40;37.20;;;15.50;;
57337;SDS011;43173;50.980;18.204;2024-02-15T09:20:09;56.50;;;22.40;;
57337;SDS011;43173;50.980;18.204;2024-02-15T09:22:43;68.20;;;25.20;;
57337;SDS011;43173;50.980;18.204;2024-02-15T09:25:13;51.00;;;20.60;;
57337;SDS011;43173;50.980;18.204;2024-02-15T09:27:39;29.60;;;14.40;;
57337;SDS011;43173;50.980;18.204;2024-02-15T09:30:05;24.20;;;12.90;;
57337;SDS011;43173;50.980;18.204;2024-02-15T09:32:37;20.90;;;12.60;;
57337;SDS011;43173;50.980;18.204;2024-02-15T09:35:04;22.50;;;12.30;;
57337;SDS011;43173;50.980;18.204;2024-02-15T09:37:34;21.30;;;12.20;;
57337;SDS011;43173;50.980;18.204;2024-02-15T09:40:20;22.70;;;11.50;;
57337;SDS011;43173;50.980;18.204;2024-02-15T09:42:46;19.70;;;11.10;;
57337;SDS011;43173;50.980;18.204;2024-02-15T09:45:13;16.90;;;11.00;;
57337;SDS011;43173;50.980;18.204;2024-02-15T09:47:40;17.50;;;9.90;;
57337;SDS011;43173;50.980;18.204;2024-02-15T09:50:12;17.50;;;9.60;;
57337;SDS011;43173;50.980;18.204;2024-02-15T09:52:40;15.20;;;9.40;;
57337;SDS011;43173;50.980;18.204;2024-02-15T09:55:08;41.00;;;14.70;;
57337;SDS011;43173;50.980;18.204;2024-02-15T09:57:38;24.00;;;12.10;;
57337;SDS011;43173;50.980;18.204;2024-02-15T10:00:05;28.80;;;12.40;;
57337;SDS011;43173;50.980;18.204;2024-02-15T10:02:40;18.40;;;11.20;;
57337;SDS011;43173;50.980;18.204;2024-02-15T10:05:06;18.30;;;11.30;;
57337;SDS011;43173;50.980;18.204;2024-02-15T10:07:40;16.10;;;9.80;;
57337;SDS011;43173;50.980;18.204;2024-02-15T10:12:51;13.60;;;8.60;;
57337;SDS011;43173;50.980;18.204;2024-02-15T10:18:09;14.50;;;8.60;;
57337;SDS011;43173;50.980;18.204;2024-02-15T10:20:40;14.70;;;8.60;;
57337;SDS011;43173;50.980;18.204;2024-02-15T10:23:12;13.20;;;8.30;;
57337;SDS011;43173;50.980;18.204;2024-02-15T10:25:42;14.80;;;8.40;;
57337;SDS011;43173;50.980;18.204;2024-02-15T10:28:11;11.50;;;8.30;;
57337;SDS011;43173;50.980;18.204;2024-02-15T10:30:41;13.80;;;7.70;;
57337;SDS011;43173;50.980;18.204;2024-02-15T10:33:09;13.90;;;8.90;;
57337;SDS011;43173;50.980;18.204;2024-02-15T10:35:35;18.30;;;9.90;;
57337;SDS011;43173;50.980;18.204;2024-02-15T10:40:33;15.30;;;9.40;;
57337;SDS011;43173;50.980;18.204;2024-02-15T10:42:59;19.60;;;10.00;;
57337;SDS011;43173;50.980;18.204;2024-02-15T10:45:24;21.40;;;10.50;;
57337;SDS011;43173;50.980;18.204;2024-02-15T10:47:51;17.60;;;9.40;;
57337;SDS011;43173;50.980;18.204;2024-02-15T10:50:17;16.70;;;8.50;;
57337;SDS011;43173;50.980;18.204;2024-02-15T10:58:10;15.00;;;8.50;;
57337;SDS011;43173;50.980;18.204;2024-02-15T11:00:38;13.30;;;8.90;;
57337;SDS011;43173;50.980;18.204;2024-02-15T11:03:05;17.10;;;9.20;;
57337;SDS011;43173;50.980;18.204;2024-02-15T11:05:34;18.10;;;9.90;;
57337;SDS011;43173;50.980;18.204;2024-02-15T11:08:09;16.50;;;9.60;;
57337;SDS011;43173;50.980;18.204;2024-02-15T11:10:36;22.50;;;12.30;;
57337;SDS011;43173;50.980;18.204;2024-02-15T11:13:02;17.70;;;9.00;;
57337;SDS011;43173;50.980;18.204;2024-02-15T11:18:59;22.20;;;11.30;;
57337;SDS011;43173;50.980;18.204;2024-02-15T11:21:10;18.20;;;10.10;;
57337;SDS011;43173;50.980;18.204;2024-02-15T11:23:36;23.50;;;11.20;;
57337;SDS011;43173;50.980;18.204;2024-02-15T11:26:02;16.50;;;9.80;;
57337;SDS011;43173;50.980;18.204;2024-02-15T11:30:54;13.80;;;8.00;;
57337;SDS011;43173;50.980;18.204;2024-02-15T11:33:33;15.50;;;7.60;;
57337;SDS011;43173;50.980;18.204;2024-02-15T11:38:30;13.70;;;8.10;;
57337;SDS011;43173;50.980;18.204;2024-02-15T11:46:08;13.70;;;7.90;;
57337;SDS011;43173;50.980;18.204;2024-02-15T11:48:38;17.80;;;8.00;;
57337;SDS011;43173;50.980;18.204;2024-02-15T11:51:07;14.20;;;7.60;;
57337;SDS011;43173;50.980;18.204;2024-02-15T11:53:36;14.00;;;7.10;;
57337;SDS011;43173;50.980;18.204;2024-02-15T11:56:03;15.30;;;8.50;;
57337;SDS011;43173;50.980;18.204;2024-02-15T11:58:35;11.60;;;7.00;;
57337;SDS011;43173;50.980;18.204;2024-02-15T12:01:16;12.30;;;7.40;;
57337;SDS011;43173;50.980;18.204;2024-02-15T12:06:39;11.40;;;6.40;;
57337;SDS011;43173;50.980;18.204;2024-02-15T12:21:42;19.00;;;10.00;;
57337;SDS011;43173;50.980;18.204;2024-02-15T12:24:07;28.30;;;13.20;;
57337;SDS011;43173;50.980;18.204;2024-02-15T12:26:33;16.20;;;8.80;;
57337;SDS011;43173;50.980;18.204;2024-02-15T12:29:00;16.10;;;7.90;;
57337;SDS011;43173;50.980;18.204;2024-02-15T12:31:26;13.30;;;8.90;;
57337;SDS011;43173;50.980;18.204;2024-02-15T12:36:35;9.70;;;6.10;;
57337;SDS011;43173;50.980;18.204;2024-02-15T12:39:03;12.60;;;5.80;;
57337;SDS011;43173;50.980;18.204;2024-02-15T12:41:37;8.60;;;5.40;;
57337;SDS011;43173;50.980;18.204;2024-02-15T12:44:05;11.90;;;5.20;;
57337;SDS011;43173;50.980;18.204;2024-02-15T12:46:35;9.40;;;5.20;;
57337;SDS011;43173;50.980;18.204;2024-02-15T12:49:10;9.50;;;4.70;;
57337;SDS011;43173;50.980;18.204;2024-02-15T12:51:50;7.20;;;4.70;;
57337;SDS011;43173;50.980;18.204;2024-02-15T12:54:22;8.20;;;4.80;;
57337;SDS011;43173;50.980;18.204;2024-02-15T12:56:49;10.00;;;4.90;;
57337;SDS011;43173;50.980;18.204;2024-02-15T12:59:16;9.60;;;5.40;;
57337;SDS011;43173;50.980;18.204;2024-02-15T13:01:42;8.20;;;5.50;;
57337;SDS011;43173;50.980;18.204;2024-02-15T13:04:08;9.70;;;6.40;;
57337;SDS011;43173;50.980;18.204;2024-02-15T13:06:34;18.10;;;8.90;;
57337;SDS011;43173;50.980;18.204;2024-02-15T13:09:01;8.40;;;5.40;;
57337;SDS011;43173;50.980;18.204;2024-02-15T13:11:30;8.30;;;3.60;;
57337;SDS011;43173;50.980;18.204;2024-02-15T13:13:57;5.20;;;2.90;;
57337;SDS011;43173;50.980;18.204;2024-02-15T13:16:22;4.60;;;3.20;;
57337;SDS011;43173;50.980;18.204;2024-02-15T13:18:49;7.10;;;3.50;;
57337;SDS011;43173;50.980;18.204;2024-02-15T13:21:14;8.20;;;3.80;;
57337;SDS011;43173;50.980;18.204;2024-02-15T13:23:40;6.30;;;4.00;;
57337;SDS011;43173;50.980;18.204;2024-02-15T13:26:05;7.70;;;4.30;;
57337;SDS011;43173;50.980;18.204;2024-02-15T13:28:33;7.00;;;3.60;;
57337;SDS011;43173;50.980;18.204;2024-02-15T13:30:59;9.30;;;4.70;;
57337;SDS011;43173;50.980;18.204;2024-02-15T13:33:24;4.90;;;3.30;;
57337;SDS011;43173;50.980;18.204;2024-02-15T13:35:52;6.80;;;3.40;;
57337;SDS011;43173;50.980;18.204;2024-02-15T13:38:17;5.80;;;2.90;;
57337;SDS011;43173;50.980;18.204;2024-02-15T13:40:48;4.10;;;3.00;;
57337;SDS011;43173;50.980;18.204;2024-02-15T13:43:17;8.00;;;3.90;;
57337;SDS011;43173;50.980;18.204;2024-02-15T13:45:43;6.00;;;3.70;;
57337;SDS011;43173;50.980;18.204;2024-02-15T13:48:10;7.10;;;3.70;;
57337;SDS011;43173;50.980;18.204;2024-02-15T13:50:38;5.00;;;3.40;;
57337;SDS011;43173;50.980;18.204;2024-02-15T13:53:04;7.70;;;3.80;;
57337;SDS011;43173;50.980;18.204;2024-02-15T13:55:30;6.70;;;4.20;;
57337;SDS011;43173;50.980;18.204;2024-02-15T13:57:56;6.40;;;3.70;;
57337;SDS011;43173;50.980;18.204;2024-02-15T14:00:23;6.70;;;3.90;;
57337;SDS011;43173;50.980;18.204;2024-02-15T14:02:58;8.40;;;3.80;;
57337;SDS011;43173;50.980;18.204;2024-02-15T14:05:25;6.70;;;4.10;;
57337;SDS011;43173;50.980;18.204;2024-02-15T14:07:56;6.10;;;3.70;;
57337;SDS011;43173;50.980;18.204;2024-02-15T14:10:30;6.60;;;3.90;;
57337;SDS011;43173;50.980;18.204;2024-02-15T14:12:57;6.10;;;3.80;;
57337;SDS011;43173;50.980;18.204;2024-02-15T14:15:32;7.20;;;3.90;;
57337;SDS011;43173;50.980;18.204;2024-02-15T14:18:09;8.00;;;3.60;;
57337;SDS011;43173;50.980;18.204;2024-02-15T14:20:36;7.30;;;3.90;;
57337;SDS011;43173;50.980;18.204;2024-02-15T14:23:02;8.00;;;4.30;;
57337;SDS011;43173;50.980;18.204;2024-02-15T14:25:31;8.10;;;5.10;;
57337;SDS011;43173;50.980;18.204;2024-02-15T14:27:57;8.50;;;5.60;;
57337;SDS011;43173;50.980;18.204;2024-02-15T14:30:23;12.30;;;5.70;;
57337;SDS011;43173;50.980;18.204;2024-02-15T14:33:06;8.10;;;5.20;;
57337;SDS011;43173;50.980;18.204;2024-02-15T14:35:37;7.50;;;5.10;;
57337;SDS011;43173;50.980;18.204;2024-02-15T14:38:08;8.90;;;5.40;;
57337;SDS011;43173;50.980;18.204;2024-02-15T14:40:45;9.50;;;5.70;;
57337;SDS011;43173;50.980;18.204;2024-02-15T14:43:16;11.00;;;6.00;;
57337;SDS011;43173;50.980;18.204;2024-02-15T14:45:42;9.70;;;5.80;;
57337;SDS011;43173;50.980;18.204;2024-02-15T14:48:08;10.50;;;5.90;;
57337;SDS011;43173;50.980;18.204;2024-02-15T14:50:35;11.80;;;5.90;;
57337;SDS011;43173;50.980;18.204;2024-02-15T14:53:01;11.40;;;6.00;;
57337;SDS011;43173;50.980;18.204;2024-02-15T14:55:27;14.10;;;6.50;;
57337;SDS011;43173;50.980;18.204;2024-02-15T14:57:54;17.10;;;6.80;;
57337;SDS011;43173;50.980;18.204;2024-02-15T15:00:20;13.00;;;7.70;;
57337;SDS011;43173;50.980;18.204;2024-02-15T15:02:49;17.30;;;7.30;;
57337;SDS011;43173;50.980;18.204;2024-02-15T15:05:14;19.60;;;6.90;;
57337;SDS011;43173;50.980;18.204;2024-02-15T15:07:56;11.30;;;6.70;;
57337;SDS011;43173;50.980;18.204;2024-02-15T15:10:38;13.90;;;6.80;;
57337;SDS011;43173;50.980;18.204;2024-02-15T15:13:19;17.00;;;6.50;;
57337;SDS011;43173;50.980;18.204;2024-02-15T15:15:46;15.50;;;6.80;;
57337;SDS011;43173;50.980;18.204;2024-02-15T15:18:13;14.10;;;7.70;;
57337;SDS011;43173;50.980;18.204;2024-02-15T15:20:38;13.90;;;6.70;;
57337;SDS011;43173;50.980;18.204;2024-02-15T15:23:05;18.00;;;7.40;;
57337;SDS011;43173;50.980;18.204;2024-02-15T15:25:32;16.70;;;6.50;;
57337;SDS011;43173;50.980;18.204;2024-02-15T15:27:58;15.60;;;6.70;;